createdAt,value
2019-03-04T00:01:01.236Z,72.83
2019-03-04T00:03:34.041Z,72.17
2019-03-04T00:06:05.687Z,71.95
2019-03-04T00:08:37.343Z,71.77
2019-03-04T00:11:09.098Z,71.46
2019-03-04T00:13:40.910Z,71.56
2019-03-04T00:16:12.810Z,71.61
2019-03-04T00:18:44.446Z,71.37
2019-03-04T00:21:16.009Z,71.51
2019-03-04T00:23:47.557Z,71.56
2019-03-04T00:26:19.141Z,71.00
2019-03-04T00:28:50.833Z,70.83
2019-03-04T00:31:22.415Z,70.89
2019-03-04T00:33:53.934Z,70.76
2019-03-04T00:36:25.534Z,70.25
2019-03-04T00:38:57.252Z,70.14
2019-03-04T00:41:28.778Z,70.49
2019-03-04T00:44:00.371Z,70.29
2019-03-04T00:46:31.943Z,70.48
2019-03-04T00:49:04.223Z,70.13
2019-03-04T00:51:35.822Z,70.54
2019-03-04T00:54:07.423Z,70.69
2019-03-04T00:56:39.083Z,70.44
2019-03-04T00:59:11.656Z,70.38
2019-03-04T01:01:43.299Z,70.03
2019-03-04T01:04:14.821Z,69.86
2019-03-04T01:06:46.623Z,69.79
2019-03-04T01:09:18.361Z,69.62
2019-03-04T01:11:49.947Z,69.51
2019-03-04T01:14:21.530Z,69.51
2019-03-04T01:16:53.049Z,69.24
2019-03-04T01:19:24.714Z,69.06
2019-03-04T01:21:56.296Z,69.06
2019-03-04T01:24:27.809Z,68.81
2019-03-04T01:26:59.422Z,68.81
2019-03-04T01:29:31.040Z,68.53
2019-03-04T01:32:02.661Z,68.07
2019-03-04T01:34:34.292Z,68.16
2019-03-04T01:37:06.161Z,68.27
2019-03-04T01:39:37.753Z,68.21
2019-03-04T01:42:09.260Z,68.19
2019-03-04T01:44:41.367Z,67.94
2019-03-04T01:47:12.891Z,68.08
2019-03-04T01:49:44.472Z,67.54
2019-03-04T01:52:16.081Z,67.54
2019-03-04T01:54:48.073Z,67.07
2019-03-04T01:57:19.851Z,66.85
2019-03-04T01:59:51.442Z,67.31
2019-03-04T02:02:23.181Z,66.92
2019-03-04T02:04:54.849Z,66.77
2019-03-04T02:07:27.437Z,67.63
2019-03-04T02:09:59.224Z,67.37
2019-03-04T02:12:30.830Z,67.14
2019-03-04T02:15:02.498Z,66.95
2019-03-04T02:17:34.399Z,67.01
2019-03-04T02:20:10.154Z,66.64
2019-03-04T02:22:42.240Z,66.61
2019-03-04T02:25:26.711Z,66.85
2019-03-04T02:27:58.323Z,66.54
2019-03-04T02:30:30.208Z,66.13
2019-03-04T02:33:01.733Z,66.65
2019-03-04T02:35:33.310Z,66.39
2019-03-04T02:38:04.856Z,66.14
2019-03-04T02:40:36.591Z,65.92
2019-03-04T02:43:08.131Z,66.11
2019-03-04T02:45:39.754Z,65.97
2019-03-04T02:48:11.344Z,65.83
2019-03-04T02:50:43.514Z,65.94
2019-03-04T02:53:15.043Z,65.57
2019-03-04T02:55:46.604Z,65.72
2019-03-04T02:58:18.201Z,65.55
2019-03-04T03:00:49.772Z,65.12
2019-03-04T03:03:21.442Z,65.02
2019-03-04T03:05:53.272Z,65.26
2019-03-04T03:08:24.914Z,65.40
2019-03-04T03:10:56.414Z,65.14
2019-03-04T03:13:27.989Z,65.47
2019-03-04T03:15:59.520Z,64.94
2019-03-04T03:18:31.111Z,65.12
2019-03-04T03:21:02.848Z,65.42
2019-03-04T03:23:34.437Z,65.48
2019-03-04T03:26:05.970Z,65.21
2019-03-04T03:28:37.487Z,64.79
2019-03-04T03:31:09.018Z,64.84
2019-03-04T03:33:40.682Z,64.76
2019-03-04T03:36:12.228Z,64.80
2019-03-04T03:38:43.757Z,64.41
2019-03-04T03:41:15.489Z,64.30
2019-03-04T03:43:47.157Z,64.43
2019-03-04T03:46:18.689Z,64.22
2019-03-04T03:48:50.289Z,63.79
2019-03-04T03:51:21.807Z,64.18
2019-03-04T03:53:53.398Z,63.99
2019-03-04T03:56:25.050Z,64.31
2019-03-04T03:58:56.720Z,64.25
2019-03-04T04:01:28.328Z,64.23
2019-03-04T04:03:59.863Z,64.14
2019-03-04T04:06:31.466Z,64.03
2019-03-04T04:09:03.080Z,63.85
2019-03-04T04:11:36.087Z,63.95
2019-03-04T04:14:08.671Z,63.60
2019-03-04T04:16:40.197Z,63.34
2019-03-04T04:19:11.731Z,63.50
2019-03-04T04:21:43.289Z,63.69
2019-03-04T04:24:14.887Z,63.68
2019-03-04T04:26:46.459Z,63.41
2019-03-04T04:29:17.986Z,63.42
2019-03-04T04:31:49.568Z,63.63
2019-03-04T04:34:21.146Z,63.95
2019-03-04T04:36:52.663Z,63.61
2019-03-04T04:39:24.252Z,63.59
2019-03-04T04:41:55.810Z,63.75
2019-03-04T04:44:27.499Z,63.65
2019-03-04T04:46:59.076Z,63.99
2019-03-04T04:49:30.660Z,63.61
2019-03-04T04:52:02.192Z,63.35
2019-03-04T04:54:33.716Z,63.44
2019-03-04T04:57:05.293Z,63.09
2019-03-04T04:59:37.294Z,63.38
2019-03-04T05:02:08.940Z,63.39
2019-03-04T05:04:40.510Z,63.66
2019-03-04T05:07:12.180Z,63.55
2019-03-04T05:09:43.872Z,63.63
2019-03-04T05:12:15.935Z,63.42
2019-03-04T05:14:48.308Z,63.41
2019-03-04T05:17:20.108Z,63.68
2019-03-04T05:19:51.915Z,63.50
2019-03-04T05:22:23.555Z,63.29
2019-03-04T05:24:55.310Z,63.04
2019-03-04T05:27:26.892Z,63.43
2019-03-04T05:29:58.585Z,63.00
2019-03-04T05:32:30.414Z,63.09
2019-03-04T05:35:02.044Z,62.55
2019-03-04T05:37:33.653Z,62.82
2019-03-04T05:40:09.974Z,62.76
2019-03-04T05:42:41.876Z,62.86
2019-03-04T05:45:16.835Z,62.46
2019-03-04T05:47:48.413Z,62.56
2019-03-04T05:50:24.323Z,62.83
2019-03-04T05:52:55.896Z,62.63
2019-03-04T05:55:27.421Z,62.82
2019-03-04T05:57:58.956Z,63.13
2019-03-04T06:00:41.350Z,62.63
2019-03-04T06:03:17.862Z,62.54
2019-03-04T06:05:49.860Z,62.60
2019-03-04T06:08:21.837Z,62.84
2019-03-04T06:10:53.474Z,62.67
2019-03-04T06:13:26.243Z,62.38
2019-03-04T06:15:58.089Z,62.52
2019-03-04T06:18:29.879Z,61.92
2019-03-04T06:21:01.599Z,61.83
2019-03-04T06:23:33.329Z,61.63
2019-03-04T06:26:05.186Z,61.85
2019-03-04T06:28:36.970Z,62.49
2019-03-04T06:31:08.946Z,62.05
2019-03-04T06:33:40.771Z,61.68
2019-03-04T06:36:12.468Z,61.77
2019-03-04T06:38:44.439Z,61.34
2019-03-04T06:41:16.252Z,60.96
2019-03-04T06:43:49.021Z,60.74
2019-03-04T06:46:20.795Z,60.46
2019-03-04T06:48:52.716Z,59.87
2019-03-04T06:51:34.921Z,59.58
2019-03-04T06:54:15.163Z,58.82
2019-03-04T06:57:00.949Z,58.36
2019-03-04T06:59:49.626Z,57.94
2019-03-04T07:02:31.951Z,58.02
2019-03-04T07:05:23.762Z,57.22
2019-03-04T07:07:55.689Z,56.55
2019-03-04T07:10:28.066Z,56.11
2019-03-04T07:12:59.706Z,56.12
2019-03-04T07:15:31.260Z,55.59
2019-03-04T07:18:02.907Z,55.76
2019-03-04T07:20:34.426Z,55.60
2019-03-04T07:23:06.074Z,55.56
2019-03-04T07:25:38.200Z,55.53
2019-03-04T07:28:09.782Z,55.22
2019-03-04T07:30:41.375Z,55.08
2019-03-04T07:33:12.922Z,55.09
2019-03-04T07:35:44.496Z,54.91
2019-03-04T07:38:21.754Z,54.38
2019-03-04T07:40:53.807Z,53.98
2019-03-04T07:43:25.477Z,53.59
2019-03-04T07:45:56.997Z,53.53
2019-03-04T07:48:28.513Z,53.11
2019-03-04T07:51:12.817Z,52.54
2019-03-04T07:53:46.598Z,52.75
2019-03-04T07:56:17.892Z,52.10
2019-03-04T07:58:49.418Z,52.29
2019-03-04T08:01:20.966Z,51.84
2019-03-04T08:03:52.550Z,51.94
2019-03-04T08:06:24.986Z,52.04
2019-03-04T08:09:16.409Z,51.45
2019-03-04T08:12:32.534Z,51.51
2019-03-04T08:15:05.938Z,51.78
2019-03-04T08:17:37.550Z,51.09
2019-03-04T08:20:09.511Z,51.16
2019-03-04T08:22:41.120Z,51.75
2019-03-04T08:25:12.872Z,51.15
2019-03-04T08:27:44.470Z,50.97
2019-03-04T08:30:19.032Z,51.33
2019-03-04T08:32:50.620Z,51.23
2019-03-04T08:35:22.457Z,51.34
2019-03-04T08:37:54.052Z,51.85
2019-03-04T08:40:25.706Z,51.67
2019-03-04T08:42:57.368Z,51.59
2019-03-04T08:45:28.945Z,51.98
2019-03-04T08:48:01.014Z,51.61
2019-03-04T08:50:32.696Z,51.57
2019-03-04T08:53:04.296Z,51.89
2019-03-04T08:55:35.894Z,52.37
2019-03-04T08:58:07.498Z,52.30
2019-03-04T09:00:40.093Z,52.87
2019-03-04T09:03:11.662Z,52.91
2019-03-04T09:05:43.257Z,52.73
2019-03-04T09:08:14.856Z,52.50
2019-03-04T09:10:47.454Z,52.43
2019-03-04T09:13:19.048Z,52.25
2019-03-04T09:15:51.636Z,52.34
2019-03-04T09:18:25.783Z,52.20
2019-03-04T09:20:59.823Z,51.51
2019-03-04T09:23:31.558Z,51.56
2019-03-04T09:26:11.930Z,51.16
2019-03-04T09:28:43.602Z,51.19
2019-03-04T09:31:15.143Z,51.03
2019-03-04T09:33:46.789Z,51.25
2019-03-04T09:36:18.814Z,50.87
2019-03-04T09:38:50.473Z,51.28
2019-03-04T09:41:22.060Z,51.48
2019-03-04T09:43:53.666Z,50.93
2019-03-04T09:46:25.262Z,50.40
2019-03-04T09:48:56.910Z,50.48
2019-03-04T09:51:28.758Z,50.45
2019-03-04T09:54:00.317Z,49.96
2019-03-04T09:56:31.827Z,50.44
2019-03-04T09:59:03.399Z,50.67
2019-03-04T10:01:42.566Z,50.69
2019-03-04T10:04:52.813Z,50.23
2019-03-04T10:07:47.456Z,49.92
2019-03-04T10:10:47.969Z,49.89
2019-03-04T10:13:46.167Z,49.65
2019-03-04T10:16:25.746Z,49.61
2019-03-04T10:19:05.643Z,49.55
2019-03-04T10:22:19.105Z,49.32
2019-03-04T10:24:55.584Z,49.53
2019-03-04T10:27:40.441Z,49.59
2019-03-04T10:30:34.393Z,49.59
2019-03-04T10:33:48.392Z,50.06
2019-03-04T10:36:50.409Z,49.97
2019-03-04T10:39:43.230Z,50.00
2019-03-04T10:42:39.202Z,50.16
2019-03-04T10:45:30.803Z,50.16
2019-03-04T10:48:02.321Z,49.74
2019-03-04T10:50:33.833Z,49.51
2019-03-04T10:53:05.425Z,49.39
2019-03-04T10:55:42.086Z,49.20
2019-03-04T10:58:10.313Z,48.94
2019-03-04T11:00:42.917Z,48.34
2019-03-04T11:03:14.680Z,48.17
2019-03-04T11:05:46.402Z,48.25
2019-03-04T11:08:18.081Z,48.20
2019-03-04T11:10:49.690Z,48.04
2019-03-04T11:13:21.297Z,48.22
2019-03-04T11:15:52.964Z,48.13
2019-03-04T11:18:24.498Z,47.50
2019-03-04T11:20:56.086Z,47.49
2019-03-04T11:23:29.704Z,47.31
2019-03-04T11:26:01.209Z,46.89
2019-03-04T11:28:32.951Z,46.87
2019-03-04T11:31:04.547Z,46.39
2019-03-04T11:33:36.120Z,46.41
2019-03-04T11:36:07.642Z,46.56
2019-03-04T11:38:52.630Z,46.14
2019-03-04T11:41:24.743Z,45.62
2019-03-04T11:43:56.396Z,45.77
2019-03-04T11:46:27.970Z,45.31
2019-03-04T11:48:59.608Z,45.09
2019-03-04T11:51:31.126Z,44.97
2019-03-04T11:54:02.796Z,44.97
2019-03-04T11:56:34.446Z,44.86
2019-03-04T11:59:06.031Z,45.21
2019-03-04T12:01:39.638Z,44.61
2019-03-04T12:04:11.303Z,44.53
2019-03-04T12:06:43.313Z,44.55
2019-03-04T12:09:15.818Z,44.34
2019-03-04T12:11:47.391Z,43.79
2019-03-04T12:14:19.534Z,43.26
2019-03-04T12:16:51.094Z,42.95
2019-03-04T12:19:22.730Z,42.76
2019-03-04T12:21:54.320Z,42.36
2019-03-04T12:24:25.892Z,42.05
2019-03-04T12:26:57.565Z,42.45
2019-03-04T12:29:29.369Z,41.94
2019-03-04T12:32:02.570Z,42.00
2019-03-04T12:34:34.345Z,41.21
2019-03-04T12:37:05.862Z,41.46
2019-03-04T12:39:37.485Z,41.61
2019-03-04T12:42:09.175Z,41.76
2019-03-04T12:44:40.828Z,41.76
2019-03-04T12:47:12.645Z,41.92
2019-03-04T12:49:44.402Z,41.56
2019-03-04T12:52:17.276Z,41.22
2019-03-04T12:54:49.328Z,41.56
2019-03-04T12:57:20.906Z,41.21
2019-03-04T12:59:54.195Z,41.27
2019-03-04T13:02:25.835Z,41.29
2019-03-04T13:04:57.624Z,41.14
2019-03-04T13:07:29.292Z,40.89
2019-03-04T13:10:00.962Z,40.76
2019-03-04T13:12:32.600Z,40.82
2019-03-04T13:15:10.057Z,40.70
2019-03-04T13:17:41.714Z,40.02
2019-03-04T13:20:16.783Z,39.87
2019-03-04T13:22:48.311Z,39.18
2019-03-04T13:25:19.873Z,38.99
2019-03-04T13:27:51.478Z,38.57
2019-03-04T13:30:41.059Z,38.25
2019-03-04T13:33:12.573Z,38.17
2019-03-04T13:35:45.039Z,37.79
2019-03-04T13:38:16.565Z,38.00
2019-03-04T13:40:49.078Z,38.18
2019-03-04T13:43:20.648Z,37.82
2019-03-04T13:45:53.909Z,38.37
2019-03-04T13:48:25.638Z,38.00
2019-03-04T13:50:57.240Z,38.20
2019-03-04T13:53:28.855Z,38.44
2019-03-04T13:56:00.521Z,38.42
2019-03-04T13:58:33.143Z,38.65
2019-03-04T14:01:04.667Z,38.81
2019-03-04T14:03:36.199Z,38.12
2019-03-04T14:06:08.066Z,37.84
2019-03-04T14:08:39.636Z,38.35
2019-03-04T14:11:12.233Z,37.74
2019-03-04T14:13:43.882Z,37.09
2019-03-04T14:16:15.742Z,37.19
2019-03-04T14:18:47.344Z,36.89
2019-03-04T14:21:18.920Z,35.85
2019-03-04T14:23:50.478Z,35.74
2019-03-04T14:26:22.061Z,35.83
2019-03-04T14:28:53.980Z,35.78
2019-03-04T14:31:25.537Z,35.73
2019-03-04T14:33:57.052Z,35.56
2019-03-04T14:36:28.688Z,35.14
2019-03-04T14:39:00.322Z,34.95
2019-03-04T14:41:32.244Z,35.13
2019-03-04T14:44:03.837Z,35.04
2019-03-04T14:46:35.344Z,35.14
2019-03-04T14:49:06.878Z,34.86
2019-03-04T14:51:38.473Z,35.42
2019-03-04T14:54:10.024Z,35.74
2019-03-04T14:56:41.569Z,36.01
2019-03-04T14:59:14.969Z,35.74
2019-03-04T15:01:48.338Z,36.09
2019-03-04T15:04:19.871Z,36.19
2019-03-04T15:06:51.443Z,36.14
2019-03-04T15:09:23.083Z,36.27
2019-03-04T15:11:54.636Z,35.96
2019-03-04T15:14:26.139Z,35.65
2019-03-04T15:17:03.244Z,35.23
2019-03-04T15:19:30.928Z,34.90
2019-03-04T15:22:03.519Z,35.74
2019-03-04T15:24:35.083Z,35.61
2019-03-04T15:27:06.681Z,35.72
2019-03-04T15:29:38.206Z,35.86
2019-03-04T15:32:10.180Z,36.15
2019-03-04T15:34:41.706Z,36.35
2019-03-04T15:37:13.263Z,36.75
2019-03-04T15:39:44.831Z,36.90
2019-03-04T15:42:16.483Z,37.00
2019-03-04T15:44:48.103Z,36.72
2019-03-04T15:47:19.779Z,37.28
2019-03-04T15:49:51.533Z,37.04
2019-03-04T15:52:23.172Z,37.42
2019-03-04T15:54:54.703Z,37.62
2019-03-04T15:57:26.332Z,37.32
2019-03-04T15:59:57.872Z,37.77
2019-03-04T16:02:29.554Z,37.37
2019-03-04T16:05:01.244Z,37.45
2019-03-04T16:07:32.997Z,37.44
2019-03-04T16:10:08.375Z,37.37
2019-03-04T16:12:39.967Z,36.15
2019-03-04T16:15:23.427Z,35.92
2019-03-04T16:17:55.037Z,35.81
2019-03-04T16:20:26.547Z,35.87
2019-03-04T16:22:58.210Z,36.33
2019-03-04T16:25:29.822Z,35.79
2019-03-04T16:28:06.393Z,35.38
2019-03-04T16:30:38.569Z,35.54
2019-03-04T16:33:10.796Z,35.52
2019-03-04T16:35:42.316Z,35.23
2019-03-04T16:38:13.849Z,35.34
2019-03-04T16:40:45.386Z,35.25
2019-03-04T16:43:16.920Z,35.72
2019-03-04T16:45:49.266Z,35.73
2019-03-04T16:48:21.011Z,35.46
2019-03-04T16:50:54.262Z,35.97
2019-03-04T16:53:34.429Z,35.74
2019-03-04T16:56:07.453Z,36.00
2019-03-04T16:58:39.426Z,36.03
2019-03-04T17:01:13.331Z,36.26
2019-03-04T17:03:45.116Z,36.31
2019-03-04T17:06:17.425Z,36.42
2019-03-04T17:08:50.862Z,37.15
2019-03-04T17:11:22.545Z,36.80
2019-03-04T17:13:54.157Z,36.65
2019-03-04T17:16:25.814Z,36.93
2019-03-04T17:18:57.470Z,37.10
2019-03-04T17:21:29.154Z,37.61
2019-03-04T17:24:00.769Z,37.42
2019-03-04T17:26:33.364Z,37.40
2019-03-04T17:29:05.235Z,37.20
2019-03-04T17:31:36.830Z,37.34
2019-03-04T17:34:08.435Z,37.41
2019-03-04T17:36:40.119Z,37.37
2019-03-04T17:39:11.780Z,37.28
2019-03-04T17:41:45.088Z,37.21
2019-03-04T17:44:21.706Z,37.29
2019-03-04T17:46:53.385Z,37.77
2019-03-04T17:49:25.183Z,37.98
2019-03-04T17:51:56.815Z,38.35
2019-03-04T17:54:29.781Z,38.45
2019-03-04T17:57:01.370Z,38.54
2019-03-04T17:59:35.479Z,38.61
2019-03-04T18:02:07.468Z,38.75
2019-03-04T18:04:39.067Z,38.54
2019-03-04T18:07:10.598Z,38.31
2019-03-04T18:09:42.148Z,38.54
2019-03-04T18:12:13.755Z,38.66
2019-03-04T18:14:45.600Z,38.33
2019-03-04T18:17:17.297Z,38.73
2019-03-04T18:19:49.320Z,38.46
2019-03-04T18:22:20.774Z,38.98
2019-03-04T18:24:52.369Z,38.65
2019-03-04T18:27:24.201Z,38.82
2019-03-04T18:30:15.348Z,38.66
2019-03-04T18:33:20.456Z,38.96
2019-03-04T18:36:17.792Z,39.10
2019-03-04T18:39:12.242Z,39.48
2019-03-04T18:42:16.207Z,39.29
2019-03-04T18:45:13.539Z,39.02
2019-03-04T18:48:18.968Z,39.30
2019-03-04T18:50:50.635Z,39.28
2019-03-04T18:53:22.281Z,39.60
2019-03-04T18:55:54.109Z,39.93
2019-03-04T18:58:25.794Z,39.91
2019-03-04T19:00:57.783Z,39.91
2019-03-04T19:03:29.690Z,40.36
2019-03-04T19:06:01.516Z,39.96
2019-03-04T19:08:33.676Z,40.55
2019-03-04T19:11:05.260Z,41.92
2019-03-04T19:13:37.259Z,43.63
2019-03-04T19:16:09.013Z,45.00
2019-03-04T19:18:41.378Z,46.75
2019-03-04T19:21:13.185Z,47.86
2019-03-04T19:23:44.941Z,48.97
2019-03-04T19:26:17.017Z,49.13
2019-03-04T19:28:48.688Z,49.39
2019-03-04T19:31:20.257Z,49.78
2019-03-04T19:33:52.025Z,50.48
2019-03-04T19:36:23.795Z,51.50
2019-03-04T19:38:57.136Z,52.98
2019-03-04T19:41:30.572Z,53.76
2019-03-04T19:44:02.516Z,54.49
2019-03-04T19:46:35.642Z,55.43
2019-03-04T19:49:08.094Z,55.97
2019-03-04T19:51:39.953Z,56.15
2019-03-04T19:54:11.657Z,56.01
2019-03-04T19:56:43.265Z,56.33
2019-03-04T19:59:14.893Z,57.02
2019-03-04T20:01:46.795Z,56.21
2019-03-04T20:04:18.539Z,56.02
2019-03-04T20:06:50.208Z,57.05
2019-03-04T20:09:21.907Z,57.14
2019-03-04T20:11:53.689Z,57.01
2019-03-04T20:14:25.451Z,57.18
2019-03-04T20:16:57.048Z,57.18
2019-03-04T20:19:28.625Z,56.64
2019-03-04T20:22:00.273Z,56.92
2019-03-04T20:24:32.021Z,57.08
2019-03-04T20:27:03.739Z,57.55
2019-03-04T20:29:35.254Z,57.71
2019-03-04T20:32:06.978Z,57.75
2019-03-04T20:34:40.008Z,57.51
2019-03-04T20:37:12.302Z,57.43
2019-03-04T20:39:44.690Z,57.36
2019-03-04T20:42:16.364Z,57.43
2019-03-04T20:44:48.286Z,57.30
2019-03-04T20:47:21.946Z,57.11
2019-03-04T20:49:54.973Z,57.11
2019-03-04T20:52:26.451Z,57.32
2019-03-04T20:54:58.112Z,57.54
2019-03-04T20:57:29.720Z,57.81
2019-03-04T21:00:01.482Z,57.64
2019-03-04T21:02:34.725Z,57.47
2019-03-04T21:05:09.952Z,57.37
2019-03-04T21:07:41.664Z,57.31
2019-03-04T21:10:14.072Z,57.20
2019-03-04T21:12:47.575Z,57.47
2019-03-04T21:15:20.014Z,57.54
2019-03-04T21:17:52.367Z,57.13
2019-03-04T21:20:25.781Z,57.49
2019-03-04T21:22:57.368Z,57.24
2019-03-04T21:25:43.918Z,57.35
2019-03-04T21:28:38.222Z,57.36
2019-03-04T21:31:31.983Z,57.20
2019-03-04T21:34:35.520Z,57.49
2019-03-04T21:37:17.759Z,56.99
2019-03-04T21:39:57.234Z,57.07
2019-03-04T21:42:39.629Z,57.16
2019-03-04T21:45:47.515Z,56.91
2019-03-04T21:48:54.027Z,56.46
2019-03-04T21:51:39.181Z,56.57
2019-03-04T21:54:12.341Z,56.29
2019-03-04T21:57:03.646Z,56.41
2019-03-04T21:59:35.229Z,56.26
2019-03-04T22:02:32.804Z,55.90
2019-03-04T22:05:12.361Z,55.36
2019-03-04T22:07:45.133Z,55.31
2019-03-04T22:10:17.231Z,55.38
2019-03-04T22:12:48.917Z,55.27
2019-03-04T22:15:20.492Z,55.00
2019-03-04T22:17:52.299Z,54.83
2019-03-04T22:20:24.010Z,54.74
2019-03-04T22:22:57.573Z,54.83
2019-03-04T22:25:29.301Z,54.80
2019-03-04T22:28:00.818Z,54.88
2019-03-04T22:30:34.112Z,54.76
2019-03-04T22:33:05.813Z,54.81
2019-03-04T22:35:37.553Z,54.62
2019-03-04T22:38:09.612Z,54.78
2019-03-04T22:40:41.661Z,54.73
2019-03-04T22:43:13.230Z,54.90
2019-03-04T22:45:44.818Z,55.01
2019-03-04T22:48:16.406Z,55.14
2019-03-04T22:50:48.000Z,55.11
2019-03-04T22:53:19.605Z,55.21
2019-03-04T22:55:51.168Z,55.11
2019-03-04T22:58:28.527Z,56.20
2019-03-04T23:01:01.125Z,56.25
2019-03-04T23:03:37.794Z,56.20
2019-03-04T23:06:14.253Z,56.61
2019-03-04T23:08:45.839Z,56.58
2019-03-04T23:11:18.202Z,56.99
2019-03-04T23:14:07.879Z,56.96
2019-03-04T23:16:39.441Z,57.27
2019-03-04T23:19:11.119Z,57.68
2019-03-04T23:22:55.723Z,57.70
2019-03-04T23:25:43.015Z,57.90
2019-03-04T23:28:14.673Z,57.78
2019-03-04T23:30:46.329Z,58.19
2019-03-04T23:33:18.014Z,58.52
2019-03-04T23:35:49.605Z,58.60
2019-03-04T23:38:21.558Z,58.35
2019-03-04T23:41:11.424Z,58.63
2019-03-04T23:43:43.084Z,58.30
2019-03-04T23:46:14.756Z,58.36
2019-03-04T23:48:46.302Z,58.39
2019-03-04T23:51:17.953Z,58.45
2019-03-04T23:53:49.990Z,58.33
2019-03-04T23:56:21.628Z,58.02
2019-03-04T23:58:53.173Z,58.04
